Time;durP1;ratioP1;P1;durP2;ratioP2;P2;SDS_P1;SDS_P2;PMS_P1;PMS_P2;Temp;Humidity;BMP_temperature;BMP_pressure;BME280_temperature;BME280_humidity;BME280_pressure;Samples;Min_cycle;Max_cycle;Signal;HPM_P1;HPM_P2
2022/04/28 00:00:44;;;;;;;5.93;3.10;;;10.40;99.90;;;;;;5021098;28;21202;-76
2022/04/28 00:03:14;;;;;;;4.60;3.70;;;10.20;99.90;;;;;;5019914;28;20439;-77
2022/04/28 00:05:41;;;;;;;5.80;3.20;;;9.90;99.90;;;;;;5023788;28;20559;-76
2022/04/28 00:08:11;;;;;;;5.50;4.00;;;10.00;99.90;;;;;;5022111;28;20477;-76
2022/04/28 00:10:38;;;;;;;5.97;3.50;;;10.10;99.90;;;;;;5022621;28;20456;-76
2022/04/28 00:13:07;;;;;;;4.63;3.67;;;9.90;99.90;;;;;;5026474;28;20431;-75
2022/04/28 00:15:33;;;;;;;5.57;3.73;;;9.90;99.90;;;;;;5021308;28;20540;-74
2022/04/28 00:18:02;;;;;;;8.10;3.77;;;9.80;99.90;;;;;;5022431;28;20431;-76
2022/04/28 00:20:30;;;;;;;7.80;4.57;;;9.90;99.90;;;;;;5020627;28;20451;-76
2022/04/28 00:22:57;;;;;;;7.50;3.37;;;9.80;99.90;;;;;;5020031;28;20442;-75
2022/04/28 00:25:24;;;;;;;6.93;3.33;;;9.70;99.90;;;;;;5029596;28;20522;-75
2022/04/28 00:27:51;;;;;;;11.37;3.13;;;9.80;99.90;;;;;;5024877;28;20480;-76
2022/04/28 00:30:18;;;;;;;15.60;4.63;;;9.80;99.90;;;;;;5023641;28;20450;-75
2022/04/28 00:32:44;;;;;;;4.50;3.90;;;9.60;99.90;;;;;;5024689;28;20951;-76
2022/04/28 00:35:11;;;;;;;8.13;4.43;;;9.50;99.90;;;;;;5026501;28;20455;-76
2022/04/28 00:37:40;;;;;;;5.67;3.93;;;9.50;99.90;;;;;;5030658;28;20438;-76
2022/04/28 00:40:08;;;;;;;5.93;4.20;;;9.50;99.90;;;;;;5023617;28;20526;-76
2022/04/28 00:42:35;;;;;;;4.03;2.90;;;9.50;99.90;;;;;;5024923;28;20443;-73
2022/04/28 00:45:01;;;;;;;22.23;3.90;;;9.50;99.90;;;;;;5032113;28;20935;-76
2022/04/28 00:50:38;;;;;;;5.77;4.83;;;9.60;99.90;;;;;;5028073;28;20460;-74
2022/04/28 00:53:01;;;;;;;4.77;3.53;;;9.60;99.90;;;;;;5029146;28;20447;-76
2022/04/28 00:55:30;;;;;;;6.57;3.10;;;9.60;99.90;;;;;;5025540;28;20819;-76
2022/04/28 00:57:57;;;;;;;6.23;4.03;;;9.60;99.90;;;;;;5029744;28;20460;-75
2022/04/28 01:00:24;;;;;;;4.23;3.17;;;9.60;99.90;;;;;;5026054;28;20483;-75
2022/04/28 01:02:51;;;;;;;5.37;3.70;;;9.60;99.90;;;;;;5026443;28;20468;-76
2022/04/28 01:05:17;;;;;;;6.30;4.20;;;9.40;99.90;;;;;;5028527;28;20508;-76
2022/04/28 01:07:44;;;;;;;5.73;3.50;;;9.40;99.90;;;;;;5027422;28;20490;-75
2022/04/28 01:10:12;;;;;;;6.43;5.70;;;9.40;99.90;;;;;;5027986;28;20514;-75
2022/04/28 01:12:39;;;;;;;5.53;3.63;;;9.40;99.90;;;;;;5021193;28;20919;-76
2022/04/28 01:15:06;;;;;;;6.20;3.83;;;9.40;99.90;;;;;;5024520;28;20615;-77
2022/04/28 01:17:33;;;;;;;10.23;3.87;;;9.40;99.90;;;;;;5024250;28;20432;-76
2022/04/28 01:19:59;;;;;;;4.40;2.67;;;9.30;99.90;;;;;;5028862;28;20454;-75
2022/04/28 01:22:27;;;;;;;6.50;3.33;;;9.20;99.90;;;;;;5031340;28;20512;-76
2022/04/28 01:24:54;;;;;;;7.93;7.17;;;9.20;99.90;;;;;;5029013;28;20534;-73
2022/04/28 01:27:21;;;;;;;7.43;4.80;;;9.10;99.90;;;;;;5031783;28;20504;-75
2022/04/28 01:29:50;;;;;;;19.70;4.63;;;9.10;99.90;;;;;;5030139;28;20895;-75
2022/04/28 01:32:16;;;;;;;7.90;3.83;;;9.20;99.90;;;;;;5029461;28;20806;-76
2022/04/28 01:34:43;;;;;;;5.10;3.53;;;9.10;99.90;;;;;;5026246;28;20484;-76
2022/04/28 01:37:09;;;;;;;4.60;3.47;;;9.10;99.90;;;;;;5025212;28;20468;-76
2022/04/28 01:39:37;;;;;;;12.57;5.30;;;9.00;99.90;;;;;;5022121;28;20963;-76
2022/04/28 01:42:05;;;;;;;7.50;4.00;;;9.00;99.90;;;;;;5020305;28;20498;-76
2022/04/28 01:44:32;;;;;;;12.40;2.93;;;9.10;99.90;;;;;;5024948;28;20571;-76
2022/04/28 01:46:59;;;;;;;7.57;4.10;;;8.90;99.90;;;;;;5026222;28;20435;-75
2022/04/28 01:49:26;;;;;;;7.83;4.73;;;8.80;99.90;;;;;;5024210;28;22196;-76
2022/04/28 01:54:59;;;;;;;5.87;4.23;;;8.90;99.90;;;;;;5020580;28;20811;-76
2022/04/28 01:57:26;;;;;;;4.47;3.43;;;9.00;99.90;;;;;;5025870;28;20461;-75
2022/04/28 01:59:53;;;;;;;6.03;4.20;;;9.00;99.90;;;;;;5026957;28;20458;-73
2022/04/28 02:02:19;;;;;;;5.63;4.57;;;8.80;99.90;;;;;;5023327;28;20435;-75
2022/04/28 02:04:46;;;;;;;7.90;4.30;;;8.60;99.90;;;;;;5024074;28;20985;-76
2022/04/28 02:07:13;;;;;;;7.30;4.10;;;8.70;99.90;;;;;;5029108;28;20443;-76
2022/04/28 02:09:42;;;;;;;7.83;3.83;;;8.70;99.90;;;;;;5023145;28;20427;-72
2022/04/28 02:12:10;;;;;;;5.93;3.70;;;8.70;99.90;;;;;;5020705;28;20797;-75
2022/04/28 02:14:36;;;;;;;7.10;4.30;;;8.60;99.90;;;;;;5022111;28;20485;-76
2022/04/28 02:17:05;;;;;;;6.13;3.17;;;8.60;99.90;;;;;;5023084;28;20443;-74
2022/04/28 02:19:31;;;;;;;4.00;3.20;;;8.50;99.90;;;;;;5021786;28;20485;-76
2022/04/28 02:21:58;;;;;;;5.80;3.93;;;8.50;99.90;;;;;;5019056;28;20464;-76
2022/04/28 02:24:25;;;;;;;6.27;3.50;;;8.60;99.90;;;;;;5023765;28;20459;-76
2022/04/28 02:26:53;;;;;;;8.30;5.47;;;8.40;99.90;;;;;;5023383;28;20832;-76
2022/04/28 02:29:20;;;;;;;8.33;4.20;;;8.30;99.90;;;;;;5026995;28;20456;-76
2022/04/28 02:31:47;;;;;;;8.70;4.83;;;8.10;99.90;;;;;;5028143;28;20582;-77
2022/04/28 02:34:13;;;;;;;8.90;5.27;;;8.00;99.90;;;;;;5025876;28;20476;-75
2022/04/28 02:36:40;;;;;;;10.03;4.03;;;7.90;99.90;;;;;;5022893;28;20503;-77
2022/04/28 02:39:07;;;;;;;5.70;4.87;;;7.90;99.90;;;;;;5028453;28;20526;-76
2022/04/28 02:41:33;;;;;;;14.23;4.77;;;7.80;99.90;;;;;;5024035;28;20492;-75
2022/04/28 02:44:01;;;;;;;9.17;4.57;;;7.70;99.90;;;;;;5049718;22;20637;-68
2022/04/28 02:46:29;;;;;;;8.50;4.23;;;7.50;99.90;;;;;;5013938;28;20464;-69
2022/04/28 02:48:55;;;;;;;5.70;3.70;;;7.60;99.90;;;;;;5016253;28;20465;-69
2022/04/28 02:51:22;;;;;;;10.33;4.17;;;7.60;99.90;;;;;;5019788;28;20436;-69
2022/04/28 02:53:49;;;;;;;5.90;3.70;;;7.60;99.90;;;;;;5021982;28;20876;-68
2022/04/28 02:56:15;;;;;;;17.13;7.20;;;7.50;99.90;;;;;;5026373;28;20478;-69
2022/04/28 02:58:42;;;;;;;7.80;4.67;;;7.60;99.90;;;;;;5013356;28;20459;-69
2022/04/28 03:01:10;;;;;;;7.83;3.73;;;7.60;99.90;;;;;;5021851;28;20459;-68
2022/04/28 03:03:37;;;;;;;10.53;4.17;;;7.50;99.90;;;;;;5019751;28;20451;-68
2022/04/28 03:11:32;;;;;;;13.40;5.10;;;7.20;99.90;;;;;;5019661;28;20458;-67
2022/04/28 03:13:59;;;;;;;5.77;3.30;;;7.20;99.90;;;;;;5023146;28;20514;-68
2022/04/28 03:16:27;;;;;;;11.97;6.67;;;7.30;99.90;;;;;;5022773;28;20824;-68
2022/04/28 03:18:54;;;;;;;8.43;4.63;;;7.30;99.90;;;;;;5023849;28;20501;-68
2022/04/28 03:21:21;;;;;;;6.00;4.27;;;7.30;99.90;;;;;;5015007;28;20815;-68
2022/04/28 03:23:48;;;;;;;8.73;3.90;;;7.20;99.90;;;;;;5022156;28;20461;-67
2022/04/28 03:26:14;;;;;;;7.10;4.17;;;7.10;99.90;;;;;;5022979;28;20458;-68
2022/04/28 03:28:41;;;;;;;10.13;4.67;;;7.10;99.90;;;;;;5019666;28;20460;-68
2022/04/28 03:31:08;;;;;;;15.50;4.77;;;7.10;99.90;;;;;;5019806;28;20431;-68
2022/04/28 03:33:36;;;;;;;12.20;4.43;;;7.10;99.90;;;;;;5026234;28;20439;-70
2022/04/28 03:36:50;;;;;;;7.13;4.17;;;7.10;99.90;;;;;;5027892;28;20439;-69
2022/04/28 03:38:50;;;;;;;12.80;3.50;;;6.90;99.90;;;;;;5018860;28;20438;-68
2022/04/28 03:41:17;;;;;;;4.90;3.57;;;6.80;99.90;;;;;;5024379;28;20454;-68
2022/04/28 03:43:44;;;;;;;10.37;4.57;;;6.80;99.90;;;;;;5013768;28;20519;-68
2022/04/28 03:46:11;;;;;;;7.70;5.07;;;6.80;99.90;;;;;;5015751;28;20996;-67
2022/04/28 03:48:39;;;;;;;7.90;4.40;;;6.70;99.90;;;;;;5017810;28;20436;-67
2022/04/28 03:51:06;;;;;;;9.40;5.70;;;6.70;99.90;;;;;;5024246;28;20453;-67
2022/04/28 03:53:33;;;;;;;7.00;3.63;;;6.80;99.90;;;;;;5021728;28;20462;-67
2022/04/28 03:55:59;;;;;;;15.27;5.23;;;6.80;99.90;;;;;;5021223;28;20469;-68
2022/04/28 03:58:26;;;;;;;10.47;4.40;;;6.80;99.90;;;;;;5015290;28;20462;-68
2022/04/28 04:00:54;;;;;;;9.00;5.17;;;6.70;99.90;;;;;;5014008;28;20480;-68
2022/04/28 04:03:21;;;;;;;5.70;3.53;;;6.70;99.90;;;;;;5021450;28;20833;-68
2022/04/28 04:05:49;;;;;;;20.50;4.90;;;6.70;99.90;;;;;;5024342;28;20844;-68
2022/04/28 04:08:16;;;;;;;11.20;7.67;;;6.70;99.90;;;;;;5026962;28;20439;-68
2022/04/28 04:10:43;;;;;;;12.07;4.20;;;6.70;99.90;;;;;;5020555;28;20955;-68
2022/04/28 04:13:10;;;;;;;6.07;3.57;;;6.70;99.90;;;;;;5025648;28;20439;-70
2022/04/28 04:15:37;;;;;;;7.80;4.10;;;6.70;99.90;;;;;;5021846;28;20498;-68
2022/04/28 04:18:04;;;;;;;13.20;4.83;;;6.90;99.90;;;;;;5024970;28;20461;-67
2022/04/28 04:20:31;;;;;;;10.70;4.87;;;7.00;99.90;;;;;;5022456;28;20484;-69
2022/04/28 04:22:59;;;;;;;5.50;3.57;;;7.00;99.90;;;;;;5024130;28;20528;-68
2022/04/28 04:25:25;;;;;;;12.23;6.60;;;7.00;99.90;;;;;;5023868;28;20476;-68
2022/04/28 04:27:52;;;;;;;16.73;6.87;;;7.10;99.90;;;;;;5013791;28;20455;-69
2022/04/28 04:33:11;;;;;;;7.03;4.90;;;7.10;99.90;;;;;;4998892;28;20968;-68
2022/04/28 04:35:38;;;;;;;8.97;5.30;;;7.10;99.90;;;;;;5023295;28;20463;-67
2022/04/28 04:38:06;;;;;;;9.43;4.83;;;7.10;99.90;;;;;;5013979;28;20431;-68
2022/04/28 04:40:32;;;;;;;5.90;4.13;;;7.10;99.90;;;;;;5023436;28;20459;-70
2022/04/28 04:42:59;;;;;;;10.40;5.60;;;7.10;99.90;;;;;;5025874;28;20469;-69
2022/04/28 04:45:26;;;;;;;16.23;5.60;;;7.20;99.90;;;;;;5019502;28;20470;-69
2022/04/28 04:47:52;;;;;;;8.23;3.93;;;7.20;99.90;;;;;;5018512;28;20449;-68
2022/04/28 04:50:19;;;;;;;12.10;7.20;;;7.30;99.90;;;;;;5009684;28;20448;-68
2022/04/28 04:52:45;;;;;;;9.70;4.73;;;7.40;99.90;;;;;;5026309;28;20430;-69
2022/04/28 04:55:13;;;;;;;8.90;5.13;;;7.50;99.90;;;;;;5019775;28;20510;-68
2022/04/28 04:57:40;;;;;;;5.00;3.93;;;7.40;99.90;;;;;;5020032;28;20467;-68
2022/04/28 05:00:08;;;;;;;8.53;4.03;;;7.30;99.90;;;;;;5021295;28;20523;-68
2022/04/28 05:02:34;;;;;;;32.67;5.10;;;7.50;99.90;;;;;;5017231;28;20472;-66
2022/04/28 05:05:01;;;;;;;13.73;8.30;;;7.70;99.90;;;;;;5014799;28;20476;-68
2022/04/28 05:07:30;;;;;;;9.63;5.93;;;8.00;99.90;;;;;;5018812;28;20457;-69
2022/04/28 05:09:56;;;;;;;9.83;6.37;;;8.30;99.90;;;;;;5018785;28;20497;-68
2022/04/28 05:12:24;;;;;;;16.73;5.93;;;8.40;99.90;;;;;;5018106;28;20461;-68
2022/04/28 05:14:51;;;;;;;7.73;4.80;;;8.50;99.90;;;;;;5027098;28;20483;-68
2022/04/28 05:17:17;;;;;;;12.40;5.70;;;8.90;99.90;;;;;;5030843;28;21396;-67
2022/04/28 05:19:44;;;;;;;7.50;5.40;;;9.10;99.90;;;;;;5024839;28;20796;-68
2022/04/28 05:22:11;;;;;;;8.67;5.00;;;9.10;99.90;;;;;;5025297;28;20454;-69
2022/04/28 05:24:40;;;;;;;6.73;4.10;;;9.40;99.90;;;;;;5030452;28;20555;-69
2022/04/28 05:27:09;;;;;;;9.70;6.50;;;9.70;99.90;;;;;;5027431;28;20592;-69
2022/04/28 05:29:37;;;;;;;10.80;5.40;;;9.80;99.90;;;;;;5022873;28;20524;-69
2022/04/28 05:32:04;;;;;;;13.70;5.43;;;9.70;99.90;;;;;;5024427;28;20800;-69
2022/04/28 05:34:30;;;;;;;12.03;6.37;;;9.80;99.90;;;;;;5023301;28;20516;-68
2022/04/28 05:36:57;;;;;;;10.97;5.83;;;9.50;99.90;;;;;;5018657;28;20498;-70
2022/04/28 05:39:25;;;;;;;9.67;6.00;;;9.70;99.90;;;;;;5016426;28;21021;-68
2022/04/28 05:41:51;;;;;;;14.23;5.30;;;9.80;99.90;;;;;;5019029;28;21105;-68
2022/04/28 05:47:04;;;;;;;7.03;6.20;;;10.50;99.90;;;;;;5026065;28;20537;-69
2022/04/28 05:49:31;;;;;;;8.60;4.43;;;10.40;99.90;;;;;;5024784;28;20514;-69
2022/04/28 05:51:58;;;;;;;11.00;5.37;;;10.40;99.90;;;;;;5029868;28;20800;-69
2022/04/28 05:54:25;;;;;;;10.07;5.90;;;10.20;99.90;;;;;;5027383;28;20488;-69
2022/04/28 05:56:52;;;;;;;6.87;5.10;;;10.60;99.90;;;;;;5032388;28;20469;-68
2022/04/28 05:59:19;;;;;;;8.83;4.40;;;10.90;99.90;;;;;;5026749;28;20442;-67
2022/04/28 06:01:45;;;;;;;11.97;4.43;;;11.30;99.90;;;;;;5025870;28;20483;-68
2022/04/28 06:04:13;;;;;;;8.27;4.70;;;11.60;99.90;;;;;;5018690;28;20455;-68
2022/04/28 06:06:40;;;;;;;11.87;5.30;;;11.40;99.90;;;;;;5018967;28;20468;-68
2022/04/28 06:09:07;;;;;;;8.07;5.43;;;11.40;99.90;;;;;;5014077;28;23605;-67
2022/04/28 06:11:34;;;;;;;9.70;5.10;;;11.60;99.90;;;;;;5026495;28;20534;-67
2022/04/28 06:14:00;;;;;;;7.03;4.70;;;11.90;99.90;;;;;;5023118;28;20535;-66
2022/04/28 06:16:27;;;;;;;8.70;4.50;;;12.10;99.90;;;;;;5011848;28;20969;-68
2022/04/28 06:18:54;;;;;;;11.30;5.67;;;11.80;99.90;;;;;;5011198;28;20452;-67
2022/04/28 06:21:22;;;;;;;10.90;5.47;;;11.70;99.90;;;;;;5021121;28;20594;-68
2022/04/28 06:23:48;;;;;;;16.33;4.97;;;12.20;99.90;;;;;;5022591;28;20481;-69
2022/04/28 06:26:15;;;;;;;10.23;4.60;;;12.40;99.90;;;;;;5024078;28;20589;-69
2022/04/28 06:28:42;;;;;;;6.60;4.10;;;13.00;99.90;;;;;;5033827;28;20666;-70
2022/04/28 06:31:09;;;;;;;7.20;3.80;;;12.80;99.90;;;;;;5028476;28;20457;-67
2022/04/28 06:33:35;;;;;;;7.70;5.03;;;12.50;99.90;;;;;;5024227;28;20465;-67
2022/04/28 06:36:02;;;;;;;12.80;4.50;;;13.00;99.90;;;;;;5020165;28;20475;-67
2022/04/28 06:38:30;;;;;;;6.93;5.30;;;13.30;99.90;;;;;;5019582;28;20462;-68
2022/04/28 06:40:57;;;;;;;20.53;6.60;;;13.60;99.90;;;;;;5025774;28;20482;-67
2022/04/28 06:43:23;;;;;;;10.60;6.53;;;13.70;99.90;;;;;;5023617;28;20470;-67
2022/04/28 06:48:34;;;;;;;6.03;4.20;;;14.10;99.90;;;;;;5016270;28;20504;-67
2022/04/28 06:51:01;;;;;;;5.37;4.60;;;13.80;99.90;;;;;;5023112;28;20515;-68
2022/04/28 06:53:29;;;;;;;11.87;5.80;;;13.70;99.90;;;;;;5029116;28;20490;-68
2022/04/28 06:55:56;;;;;;;7.90;4.23;;;13.90;99.90;;;;;;5026964;28;20438;-66
2022/04/28 06:58:22;;;;;;;11.60;7.90;;;14.50;99.90;;;;;;5020256;28;20465;-67
2022/04/28 07:00:49;;;;;;;13.87;5.20;;;14.60;99.90;;;;;;5014654;28;20484;-67
2022/04/28 07:03:18;;;;;;;6.57;5.27;;;14.90;99.90;;;;;;5024370;28;20525;-68
2022/04/28 07:05:44;;;;;;;18.40;5.27;;;15.10;99.90;;;;;;5022680;28;20476;-68
2022/04/28 07:08:11;;;;;;;11.00;6.00;;;15.30;99.90;;;;;;5026525;28;20495;-66
2022/04/28 07:10:40;;;;;;;11.97;5.60;;;15.70;99.90;;;;;;5021809;28;20443;-67
2022/04/28 07:13:06;;;;;;;14.40;6.07;;;15.50;99.90;;;;;;5023782;28;20495;-68
2022/04/28 07:15:35;;;;;;;9.23;5.30;;;15.30;99.90;;;;;;5018620;28;20501;-68
2022/04/28 07:18:03;;;;;;;11.10;5.60;;;14.80;99.90;;;;;;5021117;28;20481;-68
2022/04/28 07:20:31;;;;;;;16.40;5.10;;;14.40;99.90;;;;;;5028550;28;20788;-68
2022/04/28 07:22:59;;;;;;;7.07;4.47;;;14.70;99.90;;;;;;5022099;28;20481;-68
2022/04/28 07:25:26;;;;;;;14.53;4.93;;;15.50;99.90;;;;;;5021576;28;20477;-67
2022/04/28 07:27:54;;;;;;;11.93;5.03;;;15.70;99.90;;;;;;5028485;28;20526;-68
2022/04/28 07:30:21;;;;;;;9.40;4.93;;;15.40;99.90;;;;;;5019018;28;20458;-68
2022/04/28 07:32:48;;;;;;;8.63;5.97;;;15.70;99.90;;;;;;5021520;28;20456;-68
2022/04/28 07:35:14;;;;;;;12.90;6.30;;;16.60;99.90;;;;;;5020356;28;20528;-68
2022/04/28 07:37:41;;;;;;;11.73;7.13;;;16.60;99.90;;;;;;5030404;28;20892;-67
2022/04/28 07:40:09;;;;;;;5.87;4.20;;;17.20;99.90;;;;;;5012761;28;20462;-69
2022/04/28 07:42:36;;;;;;;8.83;4.80;;;17.60;99.90;;;;;;5022802;28;20493;-68
2022/04/28 07:45:04;;;;;;;11.97;5.60;;;17.40;99.90;;;;;;5024426;28;20542;-69
2022/04/28 07:47:31;;;;;;;6.90;5.03;;;17.50;99.90;;;;;;5026271;28;20462;-69
2022/04/28 07:49:58;;;;;;;7.97;4.60;;;17.80;99.90;;;;;;5012310;28;20525;-69
2022/04/28 07:52:24;;;;;;;8.70;7.63;;;17.50;99.90;;;;;;5011177;28;21003;-68
2022/04/28 07:54:51;;;;;;;9.67;5.73;;;17.20;99.90;;;;;;5022230;28;20480;-68
2022/04/28 07:57:18;;;;;;;11.70;5.23;;;17.30;99.90;;;;;;5020008;28;20466;-68
2022/04/28 07:59:45;;;;;;;9.23;6.10;;;17.60;99.90;;;;;;5012993;28;20679;-68
2022/04/28 08:02:14;;;;;;;17.73;6.40;;;18.20;99.90;;;;;;5014527;28;20859;-69
2022/04/28 08:04:41;;;;;;;8.33;5.90;;;18.20;99.90;;;;;;5028764;28;20469;-68
2022/04/28 08:07:08;;;;;;;7.63;4.20;;;18.80;99.90;;;;;;5023035;28;20519;-69
2022/04/28 08:09:34;;;;;;;11.80;6.30;;;18.70;99.90;;;;;;5017108;28;20474;-69
2022/04/28 08:12:01;;;;;;;11.33;5.87;;;18.90;99.90;;;;;;5023567;28;20503;-68
2022/04/28 08:14:28;;;;;;;9.20;6.23;;;18.90;99.80;;;;;;5020499;28;20473;-69
2022/04/28 08:16:55;;;;;;;12.40;6.77;;;18.50;99.90;;;;;;5021656;28;20465;-69
2022/04/28 08:19:23;;;;;;;9.07;5.40;;;18.90;99.80;;;;;;5025529;28;20840;-69
2022/04/28 08:21:50;;;;;;;13.17;6.63;;;19.20;98.90;;;;;;5021451;28;20891;-68
2022/04/28 08:24:17;;;;;;;9.77;6.20;;;19.80;98.70;;;;;;5020620;28;21012;-67
2022/04/28 08:26:44;;;;;;;14.07;6.80;;;19.50;99.10;;;;;;5024239;28;20996;-69
2022/04/28 08:29:10;;;;;;;8.03;5.80;;;20.20;97.80;;;;;;5014366;28;20890;-69
2022/04/28 08:31:43;;;;;;;11.73;6.20;;;20.60;96.80;;;;;;5011012;28;20465;-68
2022/04/28 08:34:10;;;;;;;8.00;5.90;;;20.80;96.60;;;;;;5026139;28;20969;-69
2022/04/28 08:36:38;;;;;;;11.27;6.53;;;20.60;94.40;;;;;;5021137;28;20966;-69
2022/04/28 08:39:05;;;;;;;16.40;6.93;;;20.60;94.60;;;;;;5018602;28;20458;-69
2022/04/28 08:41:33;;;;;;;9.37;6.13;;;20.70;95.10;;;;;;5017650;28;20627;-69
2022/04/28 08:44:01;;;;;;;10.83;5.97;;;21.80;94.20;;;;;;5024336;28;20590;-69
2022/04/28 08:49:14;;;;;;;13.53;6.67;;;21.10;94.20;;;;;;5044923;28;20451;-76
2022/04/28 08:51:43;;;;;;;9.30;6.77;;;21.60;93.80;;;;;;5048421;28;20484;-77
2022/04/28 08:54:11;;;;;;;9.00;6.50;;;22.30;91.80;;;;;;5046556;28;20510;-75
2022/04/28 08:56:39;;;;;;;15.30;7.03;;;22.40;90.40;;;;;;5021016;28;20497;-77
2022/04/28 08:59:11;;;;;;;13.47;6.90;;;22.40;90.30;;;;;;5022692;28;20521;-78
2022/04/28 09:01:38;;;;;;;12.53;6.17;;;22.30;87.80;;;;;;5023937;28;20835;-76
2022/04/28 09:04:05;;;;;;;9.80;6.27;;;21.60;90.10;;;;;;5023577;28;20455;-76
2022/04/28 09:06:34;;;;;;;8.87;6.10;;;21.70;88.40;;;;;;5021901;28;20999;-77
2022/04/28 09:09:04;;;;;;;10.23;5.80;;;21.40;90.10;;;;;;5028722;28;20497;-77
2022/04/28 09:11:34;;;;;;;10.43;6.80;;;22.00;89.80;;;;;;5026289;28;20828;-77
2022/04/28 09:14:12;;;;;;;8.30;5.73;;;22.40;87.40;;;;;;5024992;28;20955;-75
2022/04/28 09:16:47;;;;;;;13.93;7.40;;;22.90;87.20;;;;;;5029171;28;20482;-75
2022/04/28 09:19:16;;;;;;;9.30;5.90;;;23.10;86.10;;;;;;5024059;28;21065;-77
2022/04/28 09:21:43;;;;;;;10.60;5.33;;;23.10;86.80;;;;;;5019935;28;20511;-77
2022/04/28 09:24:14;;;;;;;11.70;6.33;;;22.70;81.40;;;;;;5023415;28;20458;-76
2022/04/28 09:26:41;;;;;;;7.30;6.37;;;22.80;83.70;;;;;;5024308;28;20802;-75
2022/04/28 09:29:12;;;;;;;11.60;6.47;;;22.90;83.90;;;;;;5024711;28;20462;-76
2022/04/28 09:31:40;;;;;;;14.03;7.20;;;23.20;82.40;;;;;;5025324;28;20497;-74
2022/04/28 09:34:08;;;;;;;7.10;5.40;;;24.00;84.00;;;;;;5037553;28;20458;-77
2022/04/28 09:36:38;;;;;;;8.93;5.87;;;24.50;80.40;;;;;;5029845;28;20477;-76
2022/04/28 09:39:06;;;;;;;8.43;5.97;;;24.30;80.50;;;;;;5026954;28;20458;-77
2022/04/28 09:44:21;;;;;;;8.50;5.80;;;24.30;75.40;;;;;;5020553;28;20528;-77
2022/04/28 09:46:51;;;;;;;6.33;5.50;;;24.50;75.10;;;;;;5029656;28;20506;-77
2022/04/28 09:49:22;;;;;;;17.90;5.70;;;25.60;73.60;;;;;;5020789;28;20459;-77
2022/04/28 09:51:49;;;;;;;11.83;5.60;;;26.00;71.20;;;;;;5029047;28;20454;-77
2022/04/28 09:54:17;;;;;;;7.83;7.00;;;26.60;70.70;;;;;;5032787;28;20443;-77
2022/04/28 09:56:47;;;;;;;14.77;7.07;;;26.40;66.20;;;;;;5026379;28;20482;-76
2022/04/28 09:59:14;;;;;;;8.67;6.03;;;26.30;66.70;;;;;;5026110;28;20467;-77
2022/04/28 10:01:43;;;;;;;10.40;5.93;;;25.80;64.50;;;;;;5017308;28;20997;-77
2022/04/28 10:04:13;;;;;;;13.00;7.00;;;24.70;69.20;;;;;;5028496;28;20545;-76
2022/04/28 10:06:40;;;;;;;8.53;6.93;;;25.10;67.10;;;;;;5023192;28;20486;-76
2022/04/28 10:09:12;;;;;;;9.53;6.27;;;25.10;66.20;;;;;;5021790;28;20465;-77
2022/04/28 10:11:39;;;;;;;7.60;5.40;;;25.70;66.20;;;;;;5024844;28;20471;-77
2022/04/28 10:14:10;;;;;;;6.47;5.67;;;25.40;63.00;;;;;;5019645;28;20482;-75
2022/04/28 10:16:38;;;;;;;14.37;6.47;;;24.80;66.90;;;;;;5026630;28;20566;-77
2022/04/28 10:19:19;;;;;;;10.47;6.73;;;24.50;66.20;;;;;;5020892;28;20820;-75
2022/04/28 10:21:57;;;;;;;10.93;7.10;;;23.30;65.20;;;;;;5023069;28;20473;-77
2022/04/28 10:32:59;;;;;;;11.73;6.70;;;23.60;65.90;;;;;;5026332;28;20476;-76
2022/04/28 10:35:35;;;;;;;10.63;6.60;;;24.30;62.80;;;;;;5030190;28;20489;-78
2022/04/28 10:38:21;;;;;;;7.80;6.70;;;25.60;62.90;;;;;;5026112;28;20466;-77
2022/04/28 10:40:57;;;;;;;12.10;7.50;;;24.90;63.10;;;;;;5024765;28;20475;-75
2022/04/28 10:43:25;;;;;;;8.50;6.13;;;25.50;61.60;;;;;;5026356;28;20459;-78
2022/04/28 10:45:58;;;;;;;9.60;6.57;;;25.50;63.50;;;;;;5026811;28;20485;-78
2022/04/28 10:48:33;;;;;;;7.90;5.27;;;26.30;59.10;;;;;;5030094;28;20460;-77
2022/04/28 10:54:23;;;;;;;8.57;6.53;;;25.60;59.80;;;;;;4996238;28;20497;-77
2022/04/28 10:57:01;;;;;;;9.20;7.50;;;26.50;58.20;;;;;;5025862;28;20476;-77
2022/04/28 10:59:34;;;;;;;10.43;7.47;;;26.00;59.10;;;;;;5035324;28;20557;-75
2022/04/28 11:02:44;;;;;;;10.60;7.20;;;25.70;58.80;;;;;;5026616;28;20450;-76
2022/04/28 11:05:37;;;;;;;8.67;5.53;;;25.90;57.40;;;;;;5033755;28;20486;-77
2022/04/28 11:08:04;;;;;;;13.53;6.93;;;26.30;56.70;;;;;;5027904;28;20969;-77
2022/04/28 11:10:31;;;;;;;10.33;7.50;;;26.20;56.20;;;;;;5022734;28;20966;-77
2022/04/28 11:13:08;;;;;;;10.73;7.40;;;27.10;55.70;;;;;;5027210;28;21102;-78
2022/04/28 11:15:38;;;;;;;9.20;5.77;;;27.10;53.00;;;;;;5032525;28;20501;-77
2022/04/28 11:18:14;;;;;;;7.37;5.60;;;26.50;53.50;;;;;;5031251;28;20458;-77
2022/04/28 11:20:45;;;;;;;9.20;6.87;;;26.00;54.30;;;;;;5024816;28;20457;-77
2022/04/28 11:23:11;;;;;;;9.87;5.93;;;26.20;55.70;;;;;;5038002;28;20962;-77
2022/04/28 11:25:38;;;;;;;9.67;7.50;;;27.10;54.30;;;;;;5031506;28;20505;-76
2022/04/28 11:28:10;;;;;;;11.53;6.60;;;27.70;53.10;;;;;;5028190;28;20461;-77
2022/04/28 11:30:45;;;;;;;10.80;6.37;;;27.50;52.30;;;;;;5029061;28;20502;-77
2022/04/28 11:33:14;;;;;;;10.37;6.70;;;27.60;52.70;;;;;;5031123;28;20494;-77
2022/04/28 11:35:42;;;;;;;12.03;7.27;;;26.60;51.20;;;;;;5023601;28;20491;-76
2022/04/28 11:38:11;;;;;;;10.07;7.27;;;26.20;52.30;;;;;;5029614;28;20478;-76
2022/04/28 11:40:39;;;;;;;9.30;5.83;;;27.10;52.50;;;;;;5031162;28;20508;-77
2022/04/28 11:43:09;;;;;;;13.37;7.47;;;28.40;50.30;;;;;;5028806;28;20474;-77
2022/04/28 11:45:42;;;;;;;12.83;6.37;;;28.50;51.00;;;;;;5019888;28;20989;-77
2022/04/28 11:48:08;;;;;;;8.80;7.10;;;28.40;49.80;;;;;;5021527;28;20609;-74
2022/04/28 11:50:37;;;;;;;10.27;7.70;;;27.90;50.00;;;;;;5020801;28;20460;-76
2022/04/28 11:53:06;;;;;;;16.50;6.97;;;28.20;51.00;;;;;;5023374;28;20479;-76
2022/04/28 11:55:36;;;;;;;10.30;7.20;;;29.00;49.00;;;;;;5012133;28;20497;-75
2022/04/28 11:58:08;;;;;;;9.20;7.33;;;29.30;48.20;;;;;;5024587;28;20800;-76
2022/04/28 12:00:37;;;;;;;16.87;7.87;;;28.80;48.70;;;;;;5018638;28;20459;-76
2022/04/28 12:03:07;;;;;;;10.83;6.90;;;29.10;46.40;;;;;;5024757;28;20525;-79
2022/04/28 12:05:36;;;;;;;8.83;7.93;;;28.40;48.60;;;;;;5031341;28;20492;-76
2022/04/28 12:08:08;;;;;;;11.20;8.10;;;28.90;49.00;;;;;;5016448;28;20462;-75
2022/04/28 12:16:14;;;;;;;11.70;7.37;;;26.00;51.30;;;;;;5027653;28;20468;-77
2022/04/28 12:21:33;;;;;;;13.43;8.30;;;28.20;51.50;;;;;;5019372;28;20475;-77
2022/04/28 12:24:11;;;;;;;10.90;7.80;;;28.50;50.10;;;;;;5022600;28;20469;-77
2022/04/28 12:26:42;;;;;;;15.00;8.00;;;29.00;49.60;;;;;;5017329;28;20893;-74
2022/04/28 12:29:09;;;;;;;10.10;8.10;;;28.40;51.30;;;;;;5012607;28;20463;-77
2022/04/28 12:31:39;;;;;;;15.23;8.07;;;28.40;49.80;;;;;;5022476;28;20550;-77
2022/04/28 12:34:11;;;;;;;9.43;7.20;;;28.70;49.50;;;;;;5018303;28;20493;-75
2022/04/28 12:36:54;;;;;;;16.77;8.50;;;28.10;49.60;;;;;;5023623;28;20497;-76
2022/04/28 12:39:21;;;;;;;10.27;7.03;;;27.20;50.40;;;;;;5014574;28;20459;-75
2022/04/28 12:41:52;;;;;;;11.10;7.37;;;26.80;49.90;;;;;;5023386;28;20543;-77
2022/04/28 12:44:22;;;;;;;8.27;7.50;;;27.20;49.10;;;;;;5028064;28;20472;-76
2022/04/28 12:46:56;;;;;;;8.17;7.20;;;27.90;47.40;;;;;;5039855;28;20478;-75
2022/04/28 12:49:23;;;;;;;10.63;8.30;;;29.00;48.30;;;;;;5031540;28;20583;-77
2022/04/28 12:51:53;;;;;;;11.37;7.10;;;29.20;47.30;;;;;;5034558;28;20485;-75
2022/04/28 12:54:21;;;;;;;12.53;8.77;;;28.90;47.80;;;;;;5027965;28;20490;-76
2022/04/28 12:56:54;;;;;;;10.20;7.47;;;28.10;47.10;;;;;;5032152;28;20610;-76
2022/04/28 12:59:27;;;;;;;9.33;6.70;;;27.70;48.30;;;;;;5040966;28;20523;-75
2022/04/28 13:01:57;;;;;;;13.67;8.23;;;27.30;50.10;;;;;;5040908;28;20444;-74
2022/04/28 13:04:26;;;;;;;10.20;7.00;;;28.30;47.60;;;;;;5042729;28;20438;-75
2022/04/28 13:06:56;;;;;;;9.60;8.00;;;28.50;48.00;;;;;;5037794;28;20481;-75
2022/04/28 13:09:26;;;;;;;9.60;6.87;;;29.20;47.00;;;;;;5037495;28;20464;-75
2022/04/28 13:11:53;;;;;;;9.70;6.90;;;28.80;46.10;;;;;;5035092;28;20477;-74
2022/04/28 13:14:22;;;;;;;8.60;6.20;;;28.70;46.00;;;;;;5032261;28;20482;-75
2022/04/28 13:16:51;;;;;;;5.77;4.40;;;27.90;47.10;;;;;;5031405;28;20601;-77
2022/04/28 13:19:19;;;;;;;9.60;7.10;;;28.70;46.10;;;;;;5022534;28;20466;-78
2022/04/28 13:21:47;;;;;;;7.60;6.80;;;28.10;46.10;;;;;;5031790;28;20525;-75
2022/04/28 13:24:15;;;;;;;10.80;5.33;;;28.10;46.20;;;;;;5037492;28;20455;-76
2022/04/28 13:26:42;;;;;;;10.50;7.40;;;27.60;48.00;;;;;;5028348;28;20483;-76
2022/04/28 13:29:09;;;;;;;8.87;5.90;;;28.00;46.30;;;;;;5024770;28;20471;-75
2022/04/28 13:31:37;;;;;;;9.33;6.00;;;27.30;45.50;;;;;;5034757;28;20467;-76
2022/04/28 13:34:04;;;;;;;11.03;7.70;;;27.80;47.30;;;;;;5034196;28;20472;-76
2022/04/28 13:36:31;;;;;;;17.10;7.07;;;28.20;45.50;;;;;;5037294;28;20478;-74